EBAW/ANR METAR and TAF weather

Enter ICAO airport designator
Station Type Date Time Source
EBAW METAR 2018/12/10 17:20 UTC NOAA

EBAW 101720Z 31009KT 9999 FEW031 SCT047 06/03 Q1025 NOSIG


Station Type Date Time Source
EBAW Decoded METAR 2018/12/10 17:20 UTC NOAA

Antwerpen / Deurne, Belgium (EBAW) 51-12N 004-28E 14M
Dec 10, 2018 - 12:20 PM EST / 2018.12.10 1720 UTC
Wind: from the NW (310 degrees) at 10 MPH (9 KT):0
Visibility: greater than 7 mile(s):0
Sky conditions: partly cloudy
Temperature: 42 F (6 C)
Dew Point: 37 F (3 C)
Relative Humidity: 81%
Pressure (altimeter): 30.27 in. Hg (1025 hPa)
ob: EBAW 101720Z 31009KT 9999 FEW031 SCT047 06/03 Q1025 NOSIG
cycle: 17

Station Type Date Time Source
EBAW TAF 2018/10/03 03:27 UTC NOAA

TAF TAF EBAW 030220Z 0303/0315 28006KT 9999 FEW026


Example: see airport list